Time;durP1;ratioP1;P1;durP2;ratioP2;P2;SDS_P1;SDS_P2;PMS_P1;PMS_P2;Temp;Humidity;BMP_temperature;BMP_pressure;BME280_temperature;BME280_humidity;BME280_pressure;Samples;Min_cycle;Max_cycle;Signal;HPM_P1;HPM_P2
2021/08/19 00:02:05;;;;;;;1.63;1.50;;;15.20;99.90;;;;;;4983430;28;20049;-87
2021/08/19 00:04:30;;;;;;;1.33;1.23;;;15.20;99.90;;;;;;5013177;28;20038;-87
2021/08/19 00:06:56;;;;;;;1.25;1.15;;;15.20;99.90;;;;;;5015532;28;20041;-87
2021/08/19 00:09:22;;;;;;;2.42;2.17;;;15.20;99.90;;;;;;5017303;28;20056;-87
2021/08/19 00:11:47;;;;;;;1.55;1.45;;;15.30;99.90;;;;;;5013222;28;20033;-88
2021/08/19 00:14:13;;;;;;;3.70;1.55;;;15.30;99.90;;;;;;4998451;28;20037;-87
2021/08/19 00:16:39;;;;;;;2.28;1.65;;;15.30;99.90;;;;;;5016403;28;20104;-87
2021/08/19 00:19:05;;;;;;;1.63;1.52;;;15.30;99.90;;;;;;5019415;28;20734;-88
2021/08/19 00:21:30;;;;;;;1.58;1.48;;;15.30;99.90;;;;;;4995124;28;20036;-87
2021/08/19 00:23:58;;;;;;;1.38;1.27;;;15.20;99.90;;;;;;5016517;28;20057;-88
2021/08/19 00:26:24;;;;;;;2.95;1.60;;;15.20;99.90;;;;;;5005429;28;20033;-87
2021/08/19 00:28:49;;;;;;;2.88;1.52;;;15.30;99.90;;;;;;5031344;28;20031;-89
2021/08/19 00:31:15;;;;;;;2.03;1.35;;;15.30;99.90;;;;;;5009580;28;20060;-87
2021/08/19 00:33:42;;;;;;;2.20;1.65;;;15.20;99.90;;;;;;5017147;28;20403;-88
2021/08/19 00:36:08;;;;;;;1.55;1.45;;;15.20;99.90;;;;;;5003670;28;20040;-88
2021/08/19 00:38:34;;;;;;;1.83;1.60;;;15.20;99.90;;;;;;4998702;28;20029;-87
2021/08/19 00:41:00;;;;;;;1.85;1.60;;;15.20;99.90;;;;;;5018771;28;20032;-88
2021/08/19 00:43:25;;;;;;;1.65;1.40;;;15.20;99.90;;;;;;5002265;28;20131;-87
2021/08/19 00:45:51;;;;;;;1.30;1.20;;;15.20;99.90;;;;;;5038529;28;20057;-88
2021/08/19 00:48:17;;;;;;;2.97;1.58;;;15.20;99.90;;;;;;5003949;28;20132;-88
2021/08/19 00:50:44;;;;;;;1.65;1.55;;;15.20;99.90;;;;;;5016929;28;20029;-88
2021/08/19 00:53:10;;;;;;;1.67;1.52;;;15.20;99.90;;;;;;5036220;28;20116;-87
2021/08/19 00:55:36;;;;;;;3.83;1.60;;;15.20;99.90;;;;;;5033649;28;20029;-88
2021/08/19 00:58:03;;;;;;;1.58;1.48;;;15.20;99.90;;;;;;5016250;28;20030;-88
2021/08/19 01:00:29;;;;;;;1.80;1.65;;;15.20;99.90;;;;;;5003801;28;20040;-87
2021/08/19 01:02:57;;;;;;;1.92;1.70;;;15.20;99.90;;;;;;5017666;28;20028;-88
2021/08/19 01:05:30;;;;;;;1.75;1.52;;;15.20;99.90;;;;;;5004472;28;20029;-88
2021/08/19 01:07:58;;;;;;;2.10;1.70;;;15.20;99.90;;;;;;5017916;28;20164;-87
2021/08/19 01:10:26;;;;;;;1.77;1.50;;;15.20;99.90;;;;;;5016884;28;20041;-87
2021/08/19 01:12:52;;;;;;;1.67;1.40;;;15.20;99.90;;;;;;5017769;28;20364;-88
2021/08/19 01:15:18;;;;;;;2.67;1.80;;;15.20;99.90;;;;;;5017778;28;20035;-87
2021/08/19 01:17:53;;;;;;;2.13;1.88;;;15.20;99.90;;;;;;5004376;28;20079;-88
2021/08/19 01:20:24;;;;;;;2.08;1.80;;;15.20;99.90;;;;;;5015140;28;20268;-87
2021/08/19 01:22:50;;;;;;;2.40;1.98;;;15.20;99.90;;;;;;5015653;28;20282;-88
2021/08/19 01:25:15;;;;;;;2.35;1.70;;;15.20;99.90;;;;;;5019039;28;20092;-87
2021/08/19 01:27:41;;;;;;;3.10;1.75;;;15.20;99.90;;;;;;4988030;28;20032;-87
2021/08/19 01:30:07;;;;;;;1.60;1.50;;;15.20;99.90;;;;;;5018766;28;20037;-87
2021/08/19 01:32:33;;;;;;;2.15;1.83;;;15.20;99.90;;;;;;5016697;28;20530;-88
2021/08/19 01:34:59;;;;;;;3.00;1.92;;;15.20;99.90;;;;;;5018376;28;20080;-88
2021/08/19 01:37:24;;;;;;;2.40;1.83;;;15.20;99.90;;;;;;5003872;28;20120;-87
2021/08/19 01:39:50;;;;;;;2.75;1.63;;;15.20;99.90;;;;;;5018928;28;20040;-90
2021/08/19 01:42:16;;;;;;;1.58;1.42;;;15.20;99.90;;;;;;5018879;28;20021;-90
2021/08/19 01:44:42;;;;;;;2.67;1.92;;;15.20;99.90;;;;;;5018540;28;20399;-88
2021/08/19 01:47:12;;;;;;;1.90;1.58;;;15.10;99.90;;;;;;5018718;28;20557;-87
2021/08/19 01:49:38;;;;;;;1.98;1.83;;;15.10;99.90;;;;;;5016594;28;20116;-88
2021/08/19 01:52:10;;;;;;;2.60;1.77;;;15.10;99.90;;;;;;5034067;28;20028;-87
2021/08/19 01:54:35;;;;;;;2.03;1.85;;;15.20;99.90;;;;;;5029102;28;20034;-88
2021/08/19 01:57:01;;;;;;;2.05;1.70;;;15.20;99.90;;;;;;5026729;28;20028;-88
2021/08/19 01:59:28;;;;;;;3.35;1.70;;;15.10;99.90;;;;;;5009106;28;20390;-88
2021/08/19 02:01:55;;;;;;;1.55;1.45;;;15.10;99.90;;;;;;5032723;28;20044;-88
2021/08/19 02:04:24;;;;;;;2.67;1.90;;;15.20;99.90;;;;;;5016592;28;20048;-88
2021/08/19 02:06:50;;;;;;;1.60;1.48;;;15.10;99.90;;;;;;5032692;28;20056;-89
2021/08/19 02:09:15;;;;;;;1.65;1.55;;;15.20;99.90;;;;;;5035217;28;20029;-88
2021/08/19 02:11:41;;;;;;;2.42;2.00;;;15.20;99.90;;;;;;5035411;28;20029;-89
2021/08/19 02:14:08;;;;;;;2.85;1.70;;;15.20;99.90;;;;;;5015696;28;20506;-88
2021/08/19 02:16:34;;;;;;;2.75;1.67;;;15.20;99.90;;;;;;5035160;28;20029;-88
2021/08/19 02:19:00;;;;;;;1.63;1.52;;;15.20;99.90;;;;;;5018433;28;20093;-87
2021/08/19 02:21:26;;;;;;;2.72;1.67;;;15.20;99.90;;;;;;5000756;28;20061;-87
2021/08/19 02:23:52;;;;;;;3.40;1.92;;;15.20;99.90;;;;;;5003699;28;20557;-87
2021/08/19 02:26:17;;;;;;;1.52;1.42;;;15.10;99.90;;;;;;4984558;28;20536;-88
2021/08/19 02:28:43;;;;;;;2.22;1.85;;;15.10;99.90;;;;;;5003569;28;20033;-87
2021/08/19 02:31:09;;;;;;;1.63;1.40;;;15.10;99.90;;;;;;5002475;28;20102;-88
2021/08/19 02:33:35;;;;;;;2.05;1.70;;;15.20;99.90;;;;;;5017258;28;20175;-88
2021/08/19 02:36:00;;;;;;;4.50;1.88;;;15.20;99.90;;;;;;5001026;28;20171;-87
2021/08/19 02:38:26;;;;;;;1.73;1.40;;;15.20;99.90;;;;;;4996362;28;20032;-87
2021/08/19 02:40:52;;;;;;;1.65;1.50;;;15.10;99.90;;;;;;5017431;28;20123;-87
2021/08/19 02:43:17;;;;;;;1.50;1.40;;;15.10;99.90;;;;;;5016552;28;20021;-88
2021/08/19 02:45:43;;;;;;;2.28;1.73;;;15.10;99.90;;;;;;4998645;28;20034;-87
2021/08/19 02:48:09;;;;;;;2.05;1.73;;;15.10;99.90;;;;;;5002527;28;20057;-87
2021/08/19 02:50:34;;;;;;;2.25;1.60;;;15.10;99.90;;;;;;5001871;28;20518;-88
2021/08/19 02:53:00;;;;;;;2.13;1.90;;;15.10;99.90;;;;;;5010418;28;20033;-89
2021/08/19 02:55:26;;;;;;;2.33;1.83;;;15.10;99.90;;;;;;5031342;28;20033;-88
2021/08/19 02:57:52;;;;;;;1.77;1.67;;;15.10;99.90;;;;;;5019070;28;20068;-88
2021/08/19 03:00:18;;;;;;;2.63;1.90;;;15.10;99.90;;;;;;5018695;28;20061;-88
2021/08/19 03:02:43;;;;;;;2.20;2.00;;;15.10;99.90;;;;;;5012342;28;20571;-87
2021/08/19 03:05:09;;;;;;;2.10;1.90;;;15.10;99.90;;;;;;5018472;28;20075;-87
2021/08/19 03:07:35;;;;;;;2.10;2.00;;;15.10;99.90;;;;;;5014110;28;20053;-87
2021/08/19 03:10:01;;;;;;;1.98;1.70;;;15.10;99.90;;;;;;5018035;28;20115;-87
2021/08/19 03:12:27;;;;;;;2.33;2.13;;;15.10;99.90;;;;;;5014966;28;20021;-89
2021/08/19 03:14:53;;;;;;;3.20;2.20;;;15.10;99.90;;;;;;4998960;28;20616;-88
2021/08/19 03:17:19;;;;;;;2.03;1.92;;;15.10;99.90;;;;;;5022946;28;20025;-88
2021/08/19 03:19:45;;;;;;;2.47;2.13;;;15.10;99.90;;;;;;5012943;28;20036;-90
2021/08/19 03:22:11;;;;;;;2.10;1.90;;;15.10;99.90;;;;;;5019139;28;20041;-89
2021/08/19 03:24:36;;;;;;;2.47;2.28;;;15.10;99.90;;;;;;5032207;28;20075;-88
2021/08/19 03:27:03;;;;;;;2.63;2.42;;;15.10;99.90;;;;;;5016223;28;20037;-88
2021/08/19 03:29:30;;;;;;;1.70;1.60;;;15.10;99.90;;;;;;5018249;28;20457;-88
2021/08/19 03:31:56;;;;;;;3.28;1.88;;;15.10;99.90;;;;;;5009965;28;20120;-87
2021/08/19 03:34:21;;;;;;;2.75;1.95;;;15.10;99.90;;;;;;5030860;28;20168;-88
2021/08/19 03:36:47;;;;;;;2.00;1.77;;;15.10;99.90;;;;;;5018089;28;20109;-88
2021/08/19 03:39:14;;;;;;;2.30;1.98;;;15.10;99.90;;;;;;5018503;28;20497;-87
2021/08/19 03:41:40;;;;;;;2.47;2.28;;;15.10;99.90;;;;;;5016321;28;20041;-88
2021/08/19 03:44:08;;;;;;;2.00;1.80;;;15.10;99.90;;;;;;5030510;28;20411;-88
2021/08/19 03:46:34;;;;;;;2.58;2.08;;;15.10;99.90;;;;;;5014675;28;20034;-88
2021/08/19 03:49:00;;;;;;;3.63;2.30;;;15.10;99.90;;;;;;5010125;28;20045;-88
2021/08/19 03:51:27;;;;;;;2.25;2.03;;;15.10;99.90;;;;;;5049174;28;20071;-88
2021/08/19 03:53:54;;;;;;;3.13;2.55;;;15.10;99.90;;;;;;5014813;28;20043;-88
2021/08/19 03:56:21;;;;;;;2.22;2.03;;;15.10;99.90;;;;;;5032046;28;20080;-88
2021/08/19 03:58:46;;;;;;;2.70;2.50;;;15.10;99.90;;;;;;5034525;28;20094;-88
2021/08/19 04:01:12;;;;;;;1.95;1.85;;;15.10;99.90;;;;;;5031214;28;20475;-88
2021/08/19 04:03:38;;;;;;;2.85;2.38;;;15.10;99.90;;;;;;5010440;28;20490;-87
2021/08/19 04:06:04;;;;;;;2.55;2.03;;;15.10;99.90;;;;;;5000862;28;20113;-88
2021/08/19 04:08:29;;;;;;;4.03;2.28;;;15.10;99.90;;;;;;5018612;28;20032;-89
2021/08/19 04:10:55;;;;;;;2.38;2.17;;;15.10;99.90;;;;;;4988672;28;20040;-88
2021/08/19 04:13:21;;;;;;;2.28;2.08;;;15.10;99.90;;;;;;5021185;28;20469;-88
2021/08/19 04:15:47;;;;;;;2.22;2.03;;;15.10;99.90;;;;;;5012564;28;20112;-88
2021/08/19 04:18:14;;;;;;;2.80;2.15;;;15.10;99.90;;;;;;5005157;28;20028;-89
2021/08/19 04:20:40;;;;;;;1.88;1.77;;;15.10;99.90;;;;;;5020959;28;20403;-87
2021/08/19 04:23:06;;;;;;;3.72;2.00;;;15.10;99.90;;;;;;5015136;28;20043;-88
2021/08/19 04:25:31;;;;;;;3.53;2.28;;;15.10;99.90;;;;;;5016913;28;20475;-88
2021/08/19 04:27:57;;;;;;;2.22;2.03;;;15.10;99.90;;;;;;5004998;28;20048;-88
2021/08/19 04:30:23;;;;;;;2.47;2.28;;;15.10;99.90;;;;;;5020908;28;20087;-87
2021/08/19 04:32:48;;;;;;;2.45;2.25;;;15.10;99.90;;;;;;5020983;28;20025;-89
2021/08/19 04:35:15;;;;;;;2.58;1.98;;;15.10;99.90;;;;;;5017486;28;20116;-87
2021/08/19 04:37:40;;;;;;;2.30;2.10;;;15.10;99.90;;;;;;5038312;28;20108;-88
2021/08/19 04:40:07;;;;;;;2.40;2.20;;;15.10;99.90;;;;;;4980735;28;20060;-88
2021/08/19 04:42:33;;;;;;;2.25;1.88;;;15.10;99.90;;;;;;5018720;28;20025;-88
2021/08/19 04:44:58;;;;;;;2.15;1.90;;;15.10;99.90;;;;;;5007297;28;20033;-87
2021/08/19 04:47:24;;;;;;;2.22;2.03;;;15.10;99.90;;;;;;5006825;28;20450;-88
2021/08/19 04:49:50;;;;;;;3.03;2.40;;;15.10;99.90;;;;;;5017464;28;20045;-87
2021/08/19 04:52:15;;;;;;;2.65;2.35;;;15.10;99.90;;;;;;5008656;28;20022;-88
2021/08/19 04:54:41;;;;;;;2.97;2.72;;;15.10;99.90;;;;;;5015341;28;20139;-88
2021/08/19 04:57:07;;;;;;;3.15;2.50;;;15.10;99.90;;;;;;5021003;28;20029;-87
2021/08/19 04:59:32;;;;;;;2.33;2.10;;;15.20;99.90;;;;;;5004334;28;20029;-88
2021/08/19 05:02:01;;;;;;;2.92;2.30;;;15.10;99.90;;;;;;5002201;28;20056;-89
2021/08/19 05:04:27;;;;;;;4.47;2.65;;;15.10;99.90;;;;;;5019158;28;20491;-88
2021/08/19 05:06:53;;;;;;;2.20;2.10;;;15.20;99.90;;;;;;5027678;28;20040;-88
2021/08/19 05:09:18;;;;;;;2.38;2.17;;;15.20;99.90;;;;;;5020489;28;20120;-88
2021/08/19 05:11:44;;;;;;;2.53;2.33;;;15.20;99.90;;;;;;5020531;28;20033;-89
2021/08/19 05:14:10;;;;;;;2.70;2.38;;;15.30;99.90;;;;;;5018536;28;20092;-87
2021/08/19 05:16:36;;;;;;;3.45;2.17;;;15.30;99.90;;;;;;5018828;28;20041;-87
2021/08/19 05:19:02;;;;;;;3.60;2.42;;;15.30;99.90;;;;;;5011646;28;20025;-89
2021/08/19 05:21:28;;;;;;;2.20;2.00;;;15.30;99.90;;;;;;5001758;28;20109;-88
2021/08/19 05:23:54;;;;;;;2.25;2.05;;;15.30;99.90;;;;;;5034767;28;20033;-88
2021/08/19 05:26:20;;;;;;;2.40;2.20;;;15.30;99.90;;;;;;5020244;28;20091;-88
2021/08/19 05:28:47;;;;;;;2.55;2.10;;;15.40;99.90;;;;;;5004080;28;20039;-88
2021/08/19 05:31:13;;;;;;;2.97;2.25;;;15.40;99.90;;;;;;5036388;28;20029;-88
2021/08/19 05:33:40;;;;;;;2.22;2.03;;;15.40;99.90;;;;;;5021016;28;20479;-90
2021/08/19 05:36:08;;;;;;;3.15;1.90;;;15.40;99.90;;;;;;5048947;28;20033;-87
2021/08/19 05:38:37;;;;;;;2.25;2.05;;;15.50;99.90;;;;;;5020579;28;20021;-88
2021/08/19 05:41:04;;;;;;;2.30;2.10;;;15.50;99.90;;;;;;5037425;28;20033;-87
2021/08/19 05:43:29;;;;;;;2.22;2.00;;;15.50;99.90;;;;;;5017743;28;20390;-88
2021/08/19 05:45:55;;;;;;;2.42;2.20;;;15.50;99.90;;;;;;5018046;28;20029;-88
2021/08/19 05:48:21;;;;;;;2.00;1.90;;;15.50;99.90;;;;;;5021460;28;20040;-88
2021/08/19 05:50:46;;;;;;;2.78;2.53;;;15.50;99.90;;;;;;5036639;28;20040;-87
2021/08/19 05:53:12;;;;;;;2.30;2.10;;;15.50;99.90;;;;;;5003394;28;20059;-87
2021/08/19 05:55:38;;;;;;;2.22;2.03;;;15.50;99.90;;;;;;5012892;28;20117;-88
2021/08/19 05:58:03;;;;;;;2.38;2.17;;;15.60;99.90;;;;;;4996360;28;20056;-88
2021/08/19 06:00:29;;;;;;;4.25;2.40;;;15.50;99.90;;;;;;5021196;28;20573;-87
2021/08/19 06:02:55;;;;;;;2.30;2.10;;;15.50;99.90;;;;;;5016436;28;20068;-88
2021/08/19 06:05:21;;;;;;;2.63;2.40;;;15.60;99.90;;;;;;5036350;28;20148;-88
2021/08/19 06:07:46;;;;;;;2.53;2.33;;;15.60;99.90;;;;;;5040294;23;20044;-80
2021/08/19 06:10:13;;;;;;;3.17;2.70;;;15.60;99.90;;;;;;4990585;28;20033;-80
2021/08/19 06:12:40;;;;;;;2.08;1.98;;;15.60;99.90;;;;;;5014281;28;20025;-80
2021/08/19 06:15:07;;;;;;;2.90;2.33;;;15.60;99.90;;;;;;5014339;28;20026;-80
2021/08/19 06:17:33;;;;;;;2.30;2.10;;;15.60;99.90;;;;;;5014563;28;20040;-80
2021/08/19 06:19:59;;;;;;;2.33;2.20;;;15.70;99.90;;;;;;4980350;28;20090;-80
2021/08/19 06:22:25;;;;;;;2.55;2.35;;;15.70;99.90;;;;;;5030658;28;20061;-80
2021/08/19 06:24:51;;;;;;;2.55;2.20;;;15.70;99.90;;;;;;4997942;28;20076;-80
2021/08/19 06:27:16;;;;;;;2.58;2.38;;;15.80;99.90;;;;;;4991463;28;20045;-79
2021/08/19 06:29:42;;;;;;;2.60;2.40;;;15.80;99.90;;;;;;5013426;28;20029;-80
2021/08/19 06:32:08;;;;;;;3.40;3.10;;;15.80;99.90;;;;;;4976134;28;20492;-80
2021/08/19 06:34:34;;;;;;;9.95;3.03;;;15.80;99.90;;;;;;4998099;28;20116;-80
2021/08/19 06:37:01;;;;;;;2.80;2.45;;;15.80;99.90;;;;;;4981310;28;20036;-80
2021/08/19 06:39:27;;;;;;;2.63;2.42;;;15.90;99.90;;;;;;5012300;28;20033;-80
2021/08/19 06:41:53;;;;;;;3.80;2.60;;;15.90;99.90;;;;;;5028882;28;20041;-80
2021/08/19 06:44:18;;;;;;;3.22;2.92;;;15.90;99.90;;;;;;5013961;28;20025;-80
2021/08/19 06:46:44;;;;;;;4.05;2.65;;;16.00;99.90;;;;;;4994237;28;20495;-80
2021/08/19 06:49:09;;;;;;;3.25;2.95;;;16.00;99.90;;;;;;4977248;28;20399;-81
2021/08/19 06:51:35;;;;;;;2.92;2.63;;;16.10;99.90;;;;;;5013320;28;20029;-80
2021/08/19 06:54:01;;;;;;;4.47;3.38;;;16.10;99.90;;;;;;4979549;28;20030;-82
2021/08/19 06:56:27;;;;;;;3.47;3.17;;;16.20;99.90;;;;;;5012409;28;20384;-82
2021/08/19 06:58:53;;;;;;;3.40;3.10;;;16.20;99.90;;;;;;4995030;28;20025;-80
2021/08/19 07:01:19;;;;;;;3.97;3.53;;;16.20;99.90;;;;;;4994504;28;20441;-81
2021/08/19 07:03:44;;;;;;;3.47;2.95;;;16.20;99.90;;;;;;4995116;28;20474;-82
2021/08/19 07:06:15;;;;;;;3.30;3.00;;;16.30;99.90;;;;;;4975399;28;20052;-81
2021/08/19 07:08:41;;;;;;;3.28;2.97;;;16.40;99.90;;;;;;5024765;28;20025;-81
2021/08/19 07:11:08;;;;;;;3.80;3.13;;;16.40;99.90;;;;;;5028717;28;20049;-81
2021/08/19 07:13:34;;;;;;;2.88;2.65;;;16.40;99.90;;;;;;5012778;28;20029;-80
2021/08/19 07:16:00;;;;;;;2.92;2.60;;;16.50;99.90;;;;;;5030239;28;20415;-81
2021/08/19 07:18:25;;;;;;;4.07;2.60;;;16.60;99.90;;;;;;4993536;28;20140;-81
2021/08/19 07:20:51;;;;;;;6.45;2.92;;;16.60;99.90;;;;;;4996716;28;20044;-81
2021/08/19 07:23:17;;;;;;;4.57;2.75;;;16.60;99.90;;;;;;5011328;28;20028;-81
2021/08/19 07:25:43;;;;;;;4.40;2.90;;;16.70;99.90;;;;;;5012392;28;20042;-81
2021/08/19 07:28:09;;;;;;;2.78;2.58;;;16.70;99.90;;;;;;5028470;28;20047;-81
2021/08/19 07:30:35;;;;;;;3.90;3.05;;;16.90;99.90;;;;;;5009221;28;20032;-81
2021/08/19 07:33:01;;;;;;;2.72;2.53;;;17.00;99.90;;;;;;5029385;28;20494;-81
2021/08/19 07:35:27;;;;;;;2.80;2.55;;;17.10;99.90;;;;;;5012274;28;20033;-80
2021/08/19 07:37:55;;;;;;;2.65;2.42;;;17.20;99.90;;;;;;5026848;28;20035;-81
2021/08/19 07:40:23;;;;;;;4.22;2.92;;;17.20;99.90;;;;;;5003299;28;20507;-81
2021/08/19 07:42:50;;;;;;;3.40;2.78;;;17.30;99.90;;;;;;5024128;28;20034;-81
2021/08/19 07:45:17;;;;;;;3.63;2.88;;;17.40;99.90;;;;;;5030386;28;20121;-81
2021/08/19 07:47:43;;;;;;;2.67;2.47;;;17.40;99.90;;;;;;5012464;28;20045;-81
2021/08/19 07:50:10;;;;;;;2.78;2.58;;;17.40;99.90;;;;;;5023369;28;20045;-83
2021/08/19 07:52:38;;;;;;;2.40;2.20;;;17.40;99.90;;;;;;5005650;28;20108;-82
2021/08/19 07:55:05;;;;;;;2.75;2.53;;;17.30;99.90;;;;;;5022215;28;20039;-82
2021/08/19 07:58:00;;;;;;;3.10;2.72;;;17.30;99.90;;;;;;5009208;28;20108;-82
2021/08/19 08:00:29;;;;;;;3.13;2.80;;;17.40;99.90;;;;;;4996551;28;20052;-83
2021/08/19 08:02:55;;;;;;;2.65;2.42;;;17.40;99.90;;;;;;4993165;28;20265;-83
2021/08/19 08:05:23;;;;;;;3.40;2.70;;;17.40;99.90;;;;;;4981430;28;20509;-81
2021/08/19 08:07:50;;;;;;;3.17;2.80;;;17.50;99.90;;;;;;4998514;28;20037;-84
2021/08/19 08:10:15;;;;;;;2.63;2.42;;;17.60;99.90;;;;;;5026881;28;20038;-82
2021/08/19 08:12:41;;;;;;;2.85;2.65;;;17.70;99.90;;;;;;5010984;28;20045;-83
2021/08/19 08:15:08;;;;;;;2.60;2.33;;;17.80;99.90;;;;;;4976170;28;20036;-84
2021/08/19 08:17:35;;;;;;;4.13;2.00;;;17.90;99.90;;;;;;5011595;28;20033;-82
2021/08/19 08:20:01;;;;;;;3.92;2.10;;;17.90;99.90;;;;;;4994951;28;20034;-84
2021/08/19 08:22:26;;;;;;;2.30;2.00;;;17.90;99.90;;;;;;5023509;28;20411;-83
2021/08/19 08:24:52;;;;;;;2.63;2.42;;;17.90;99.90;;;;;;5005964;28;20125;-82
2021/08/19 08:27:18;;;;;;;4.57;2.60;;;18.00;99.90;;;;;;4974413;28;20033;-82
2021/08/19 08:29:43;;;;;;;2.50;2.30;;;18.00;99.90;;;;;;5011066;28;20677;-84
2021/08/19 08:32:10;;;;;;;1.92;1.73;;;18.10;99.90;;;;;;4979687;28;20194;-84
2021/08/19 08:34:40;;;;;;;2.63;2.03;;;18.20;99.90;;;;;;4995012;28;20037;-83
2021/08/19 08:37:07;;;;;;;2.13;1.90;;;18.40;99.90;;;;;;5024189;28;20542;-81
2021/08/19 08:39:36;;;;;;;2.25;1.90;;;18.50;99.90;;;;;;5022643;28;20365;-80
2021/08/19 08:42:06;;;;;;;2.03;1.67;;;18.60;99.90;;;;;;5026841;28;20029;-81
2021/08/19 08:44:32;;;;;;;2.92;1.95;;;18.70;99.90;;;;;;5011626;28;20116;-82
2021/08/19 08:46:59;;;;;;;2.47;1.80;;;18.70;99.90;;;;;;4993541;28;20037;-82
2021/08/19 08:49:26;;;;;;;1.73;1.52;;;18.60;99.90;;;;;;5023624;28;20072;-81
2021/08/19 08:51:58;;;;;;;2.08;1.40;;;18.50;99.90;;;;;;5008913;28;20112;-82
2021/08/19 08:54:29;;;;;;;1.85;1.60;;;18.40;99.90;;;;;;5002417;28;20025;-82
2021/08/19 08:56:56;;;;;;;2.80;1.83;;;18.30;99.90;;;;;;5007470;28;20088;-83
2021/08/19 08:59:21;;;;;;;3.22;1.52;;;18.20;99.90;;;;;;4988600;28;20041;-79
2021/08/19 09:01:47;;;;;;;1.70;1.60;;;18.10;99.90;;;;;;5010881;28;20030;-84
2021/08/19 09:04:13;;;;;;;2.53;2.10;;;18.10;99.90;;;;;;5008673;28;20038;-79
2021/08/19 09:06:43;;;;;;;1.83;1.73;;;18.00;99.90;;;;;;5007171;28;20045;-79
2021/08/19 09:09:23;;;;;;;2.70;2.50;;;17.70;99.90;;;;;;5018695;28;20491;-81
2021/08/19 09:11:54;;;;;;;2.60;2.40;;;17.50;99.90;;;;;;5023261;28;20060;-81
2021/08/19 09:14:22;;;;;;;2.63;2.15;;;17.50;99.90;;;;;;5011060;28;20395;-79
2021/08/19 09:16:49;;;;;;;2.45;2.25;;;17.50;99.90;;;;;;5023372;28;20116;-80
2021/08/19 09:19:18;;;;;;;2.65;2.35;;;17.60;99.90;;;;;;5001866;28;20030;-80
2021/08/19 09:21:49;;;;;;;2.88;1.85;;;17.80;99.90;;;;;;5024698;28;20286;-79
2021/08/19 09:24:18;;;;;;;2.83;2.03;;;18.00;99.90;;;;;;4990283;28;20472;-79
2021/08/19 09:26:44;;;;;;;1.80;1.70;;;18.10;99.90;;;;;;5023579;28;20033;-79
2021/08/19 09:29:16;;;;;;;1.17;1.08;;;18.20;99.90;;;;;;5022702;28;20124;-79
2021/08/19 09:31:41;;;;;;;0.85;0.85;;;18.20;99.90;;;;;;5005769;28;20030;-78
2021/08/19 09:34:08;;;;;;;1.52;1.15;;;18.30;99.90;;;;;;5019788;28;20488;-78
2021/08/19 09:36:37;;;;;;;1.25;0.70;;;18.30;99.90;;;;;;5008472;28;20035;-80
2021/08/19 09:39:06;;;;;;;0.80;0.80;;;18.40;99.90;;;;;;5019259;28;20055;-78
2021/08/19 09:41:32;;;;;;;0.77;0.60;;;18.30;99.90;;;;;;4987179;28;20439;-79
2021/08/19 09:43:59;;;;;;;0.50;0.50;;;18.50;99.90;;;;;;5011471;28;20086;-80
2021/08/19 09:46:30;;;;;;;1.67;0.70;;;18.50;99.90;;;;;;5024692;28;20053;-79
2021/08/19 09:48:59;;;;;;;0.40;0.40;;;18.60;99.90;;;;;;5018775;28;20152;-78
2021/08/19 09:51:25;;;;;;;0.93;0.60;;;18.70;99.90;;;;;;5020865;28;20095;-79
2021/08/19 09:53:59;;;;;;;1.08;0.90;;;18.70;99.90;;;;;;5022742;28;20480;-78
2021/08/19 09:56:38;;;;;;;0.70;0.70;;;18.70;99.90;;;;;;5021907;28;20638;-78
2021/08/19 09:59:21;;;;;;;0.60;0.52;;;18.80;99.90;;;;;;5019685;28;20432;-78
2021/08/19 10:01:48;;;;;;;0.70;0.57;;;18.90;99.90;;;;;;5019524;28;20472;-78
2021/08/19 10:04:15;;;;;;;0.50;0.50;;;18.90;99.90;;;;;;5025330;28;20112;-78
2021/08/19 10:06:42;;;;;;;0.75;0.70;;;18.90;99.90;;;;;;5024638;28;20022;-78
2021/08/19 10:09:07;;;;;;;0.40;0.40;;;18.90;99.90;;;;;;5025865;28;20052;-78
2021/08/19 10:11:33;;;;;;;0.50;0.32;;;19.00;99.90;;;;;;5027198;28;20026;-77
2021/08/19 10:14:01;;;;;;;0.40;0.40;;;18.90;99.90;;;;;;5029093;28;20147;-78
2021/08/19 10:16:30;;;;;;;0.75;0.30;;;19.00;99.90;;;;;;5029783;28;20073;-78
2021/08/19 10:19:00;;;;;;;0.30;0.30;;;19.10;99.90;;;;;;5025189;28;20044;-77
2021/08/19 10:21:28;;;;;;;0.50;0.50;;;19.10;99.90;;;;;;5023725;28;20037;-78
2021/08/19 10:23:55;;;;;;;1.95;0.40;;;19.10;99.90;;;;;;5017046;28;20038;-81
2021/08/19 10:26:23;;;;;;;2.03;0.80;;;19.10;99.90;;;;;;5026343;28;20523;-82
2021/08/19 10:28:57;;;;;;;0.60;0.57;;;19.20;99.90;;;;;;5022589;28;20434;-78
2021/08/19 10:31:46;;;;;;;0.52;0.52;;;19.30;99.90;;;;;;5025843;28;20028;-79
2021/08/19 10:34:39;;;;;;;0.73;0.73;;;19.40;99.90;;;;;;5010880;28;20040;-80
2021/08/19 10:37:05;;;;;;;2.63;1.13;;;19.50;99.90;;;;;;5001153;28;20034;-79
2021/08/19 10:39:32;;;;;;;0.90;0.70;;;19.50;99.90;;;;;;4988164;28;20096;-82
2021/08/19 10:41:58;;;;;;;0.80;0.80;;;19.60;99.90;;;;;;4992338;28;20030;-80
2021/08/19 10:44:50;;;;;;;0.90;0.90;;;19.70;99.90;;;;;;5027372;28;20056;-79
2021/08/19 10:47:37;;;;;;;0.85;0.85;;;19.70;99.90;;;;;;5022436;28;20410;-79
2021/08/19 10:50:27;;;;;;;0.80;0.80;;;19.60;99.90;;;;;;5008196;28;20041;-80
2021/08/19 10:52:54;;;;;;;2.38;0.90;;;19.60;99.90;;;;;;5001753;28;20037;-78
2021/08/19 10:55:20;;;;;;;1.60;1.30;;;19.50;99.90;;;;;;5024887;28;20025;-81
2021/08/19 10:57:54;;;;;;;1.50;1.40;;;19.50;99.90;;;;;;5005242;28;20033;-79
2021/08/19 11:00:40;;;;;;;1.20;1.10;;;19.30;99.90;;;;;;5021682;28;20056;-78
2021/08/19 11:03:06;;;;;;;1.60;1.50;;;19.30;99.90;;;;;;5025167;28;20036;-81
2021/08/19 11:05:32;;;;;;;1.90;1.33;;;19.20;99.90;;;;;;5005304;28;20033;-83
2021/08/19 11:08:03;;;;;;;1.65;1.33;;;19.20;99.90;;;;;;5022804;28;20093;-81
2021/08/19 11:10:37;;;;;;;1.50;1.40;;;19.10;99.90;;;;;;5024010;28;20120;-79
2021/08/19 11:13:11;;;;;;;1.27;1.17;;;19.10;99.90;;;;;;5023016;28;20040;-79
2021/08/19 11:15:45;;;;;;;1.35;1.25;;;19.10;99.90;;;;;;5023827;28;20044;-80
2021/08/19 11:18:40;;;;;;;1.40;1.20;;;19.20;99.90;;;;;;5025308;28;20037;-79
2021/08/19 11:21:10;;;;;;;1.30;1.20;;;19.40;99.90;;;;;;5026746;28;20049;-80
2021/08/19 11:23:41;;;;;;;2.75;1.50;;;19.60;99.90;;;;;;5008472;28;20756;-78
2021/08/19 11:26:11;;;;;;;1.70;1.60;;;19.70;99.90;;;;;;5023430;28;20249;-79
2021/08/19 11:28:42;;;;;;;2.10;1.15;;;19.90;99.90;;;;;;5023084;28;20055;-80
2021/08/19 11:31:14;;;;;;;1.52;1.23;;;20.00;99.90;;;;;;5024891;28;20168;-81
2021/08/19 11:33:41;;;;;;;1.02;1.02;;;20.20;99.90;;;;;;5004305;28;20411;-79
2021/08/19 11:36:07;;;;;;;1.55;1.40;;;20.30;99.90;;;;;;5008173;28;20634;-79
2021/08/19 11:38:36;;;;;;;1.60;1.30;;;20.40;99.90;;;;;;5022709;28;20021;-79
2021/08/19 11:41:22;;;;;;;1.23;1.10;;;20.40;99.90;;;;;;5008569;28;20489;-80
2021/08/19 11:43:49;;;;;;;1.40;1.30;;;20.50;99.90;;;;;;5024186;28;20037;-80
2021/08/19 11:46:20;;;;;;;1.55;1.27;;;20.50;99.90;;;;;;5022826;28;20037;-79
2021/08/19 11:48:56;;;;;;;1.23;1.13;;;20.30;99.90;;;;;;5004745;28;20022;-80
2021/08/19 11:51:32;;;;;;;1.33;1.23;;;20.20;99.90;;;;;;5024875;28;20061;-79
2021/08/19 11:54:02;;;;;;;1.38;1.27;;;20.10;99.90;;;;;;5023690;28;20030;-80
2021/08/19 11:56:32;;;;;;;1.00;0.95;;;20.00;99.90;;;;;;5025509;28;20029;-80
2021/08/19 11:59:11;;;;;;;1.42;1.23;;;19.90;99.90;;;;;;5023470;28;20585;-79
2021/08/19 12:01:39;;;;;;;2.08;1.08;;;19.80;99.90;;;;;;5007529;28;20069;-80
2021/08/19 12:04:06;;;;;;;1.35;1.25;;;19.60;99.90;;;;;;5008924;28;20536;-79
2021/08/19 12:06:33;;;;;;;3.03;1.80;;;19.50;99.90;;;;;;5024771;28;20623;-79
2021/08/19 12:09:06;;;;;;;1.88;1.40;;;19.40;99.90;;;;;;5008559;28;20029;-81
2021/08/19 12:11:43;;;;;;;2.47;1.40;;;19.30;99.90;;;;;;5024532;28;20041;-79
2021/08/19 12:14:13;;;;;;;1.40;1.30;;;19.10;99.90;;;;;;5008847;28;20038;-77
2021/08/19 12:16:51;;;;;;;1.42;1.30;;;19.10;99.90;;;;;;5020392;28;20122;-78
2021/08/19 12:19:24;;;;;;;1.65;1.20;;;19.00;99.90;;;;;;5017826;28;20026;-77
2021/08/19 12:21:53;;;;;;;2.72;1.55;;;18.90;99.90;;;;;;5024182;28;20472;-79
2021/08/19 12:24:19;;;;;;;1.58;1.48;;;18.80;99.90;;;;;;5025211;28;20099;-79
2021/08/19 12:27:07;;;;;;;1.40;1.25;;;18.80;99.90;;;;;;5007240;28;20037;-79
2021/08/19 12:29:57;;;;;;;1.52;1.42;;;18.80;99.90;;;;;;5023620;28;20048;-79
2021/08/19 12:32:25;;;;;;;1.73;1.60;;;19.00;99.90;;;;;;5027566;28;20680;-79
2021/08/19 12:35:02;;;;;;;1.48;1.20;;;19.10;99.90;;;;;;5030843;28;20131;-81
2021/08/19 12:37:30;;;;;;;2.00;1.25;;;19.20;99.90;;;;;;5023141;28;20061;-82
2021/08/19 12:39:57;;;;;;;1.80;1.50;;;19.30;99.90;;;;;;5009107;28;20033;-79
2021/08/19 12:42:32;;;;;;;1.40;1.30;;;19.30;99.90;;;;;;5029388;28;20047;-78
2021/08/19 12:45:10;;;;;;;2.75;1.50;;;19.30;99.90;;;;;;5028536;28;20030;-79
2021/08/19 12:47:41;;;;;;;2.38;1.40;;;19.30;99.90;;;;;;5028683;28;20236;-79
2021/08/19 12:50:09;;;;;;;1.50;1.40;;;19.40;99.90;;;;;;5027122;28;20037;-81
2021/08/19 12:52:35;;;;;;;1.92;1.58;;;19.50;99.90;;;;;;5012260;28;20072;-78